sensor_id;sensor_type;location;lat;lon;timestamp;temperature;humidity
46816;DHT22;32787;53.316;8.670;2022-07-09T00:02:03;12.90;90.00
46816;DHT22;32787;53.316;8.670;2022-07-09T00:04:30;12.90;90.00
46816;DHT22;32787;53.316;8.670;2022-07-09T00:06:55;13.10;89.80
46816;DHT22;32787;53.316;8.670;2022-07-09T00:09:21;13.10;89.40
46816;DHT22;32787;53.316;8.670;2022-07-09T00:11:46;13.10;89.20
46816;DHT22;32787;53.316;8.670;2022-07-09T00:14:12;13.00;89.40
46816;DHT22;32787;53.316;8.670;2022-07-09T00:16:38;12.90;89.50
46816;DHT22;32787;53.316;8.670;2022-07-09T00:19:03;13.10;89.60
46816;DHT22;32787;53.316;8.670;2022-07-09T00:21:30;13.00;89.50
46816;DHT22;32787;53.316;8.670;2022-07-09T00:23:55;12.90;89.70
46816;DHT22;32787;53.316;8.670;2022-07-09T00:26:21;12.90;89.70
46816;DHT22;32787;53.316;8.670;2022-07-09T00:28:46;12.80;89.70
46816;DHT22;32787;53.316;8.670;2022-07-09T00:31:12;12.90;90.00
46816;DHT22;32787;53.316;8.670;2022-07-09T00:33:38;12.90;90.00
46816;DHT22;32787;53.316;8.670;2022-07-09T00:36:04;13.00;89.60
46816;DHT22;32787;53.316;8.670;2022-07-09T00:38:30;13.00;89.60
46816;DHT22;32787;53.316;8.670;2022-07-09T00:40:55;12.90;89.70
46816;DHT22;32787;53.316;8.670;2022-07-09T00:43:22;13.00;89.90
46816;DHT22;32787;53.316;8.670;2022-07-09T00:45:48;13.00;90.10
46816;DHT22;32787;53.316;8.670;2022-07-09T00:48:14;13.10;90.20
46816;DHT22;32787;53.316;8.670;2022-07-09T00:50:41;13.00;89.70
46816;DHT22;32787;53.316;8.670;2022-07-09T00:53:12;13.00;89.80
46816;DHT22;32787;53.316;8.670;2022-07-09T00:55:39;12.90;89.70
46816;DHT22;32787;53.316;8.670;2022-07-09T00:58:05;12.80;89.90
46816;DHT22;32787;53.316;8.670;2022-07-09T01:00:32;12.80;90.30
46816;DHT22;32787;53.316;8.670;2022-07-09T01:02:58;12.80;90.20
46816;DHT22;32787;53.316;8.670;2022-07-09T01:05:24;12.90;90.40
46816;DHT22;32787;53.316;8.670;2022-07-09T01:07:49;12.90;90.70
46816;DHT22;32787;53.316;8.670;2022-07-09T01:10:16;13.00;90.40
46816;DHT22;32787;53.316;8.670;2022-07-09T01:12:42;13.00;90.40
46816;DHT22;32787;53.316;8.670;2022-07-09T01:15:08;13.10;90.60
46816;DHT22;32787;53.316;8.670;2022-07-09T01:17:38;13.30;90.30
46816;DHT22;32787;53.316;8.670;2022-07-09T01:20:04;13.30;90.10
46816;DHT22;32787;53.316;8.670;2022-07-09T01:22:30;13.30;89.80
46816;DHT22;32787;53.316;8.670;2022-07-09T01:24:56;13.30;90.10
46816;DHT22;32787;53.316;8.670;2022-07-09T01:27:22;13.30;90.40
46816;DHT22;32787;53.316;8.670;2022-07-09T01:29:48;13.30;90.30
46816;DHT22;32787;53.316;8.670;2022-07-09T01:32:16;13.30;90.00
46816;DHT22;32787;53.316;8.670;2022-07-09T01:34:41;13.40;90.20
46816;DHT22;32787;53.316;8.670;2022-07-09T01:37:07;13.40;90.00
46816;DHT22;32787;53.316;8.670;2022-07-09T01:39:33;13.30;90.10
46816;DHT22;32787;53.316;8.670;2022-07-09T01:41:58;13.30;90.00
46816;DHT22;32787;53.316;8.670;2022-07-09T01:44:24;13.30;90.20
46816;DHT22;32787;53.316;8.670;2022-07-09T01:46:50;13.30;90.50
46816;DHT22;32787;53.316;8.670;2022-07-09T01:49:16;13.30;90.40
46816;DHT22;32787;53.316;8.670;2022-07-09T01:51:42;13.40;90.30
46816;DHT22;32787;53.316;8.670;2022-07-09T01:54:07;13.60;90.10
46816;DHT22;32787;53.316;8.670;2022-07-09T01:56:33;13.60;90.00
46816;DHT22;32787;53.316;8.670;2022-07-09T01:59:00;13.60;90.10
46816;DHT22;32787;53.316;8.670;2022-07-09T02:01:26;13.60;90.10
46816;DHT22;32787;53.316;8.670;2022-07-09T02:03:52;13.50;90.10
46816;DHT22;32787;53.316;8.670;2022-07-09T02:06:17;13.50;90.30
46816;DHT22;32787;53.316;8.670;2022-07-09T02:08:43;13.50;90.70
46816;DHT22;32787;53.316;8.670;2022-07-09T02:11:09;13.70;90.40
46816;DHT22;32787;53.316;8.670;2022-07-09T02:13:35;13.70;90.20
46816;DHT22;32787;53.316;8.670;2022-07-09T02:16:01;13.70;90.30
46816;DHT22;32787;53.316;8.670;2022-07-09T02:18:27;13.70;90.50
46816;DHT22;32787;53.316;8.670;2022-07-09T02:20:53;13.80;90.40
46816;DHT22;32787;53.316;8.670;2022-07-09T02:23:22;13.80;90.50
46816;DHT22;32787;53.316;8.670;2022-07-09T02:25:48;13.80;90.30
46816;DHT22;32787;53.316;8.670;2022-07-09T02:28:13;13.90;90.40
46816;DHT22;32787;53.316;8.670;2022-07-09T02:30:39;13.80;90.50
46816;DHT22;32787;53.316;8.670;2022-07-09T02:33:05;13.80;90.40
46816;DHT22;32787;53.316;8.670;2022-07-09T02:35:31;13.80;90.70
46816;DHT22;32787;53.316;8.670;2022-07-09T02:37:56;13.80;90.90
46816;DHT22;32787;53.316;8.670;2022-07-09T02:40:22;13.90;90.80
46816;DHT22;32787;53.316;8.670;2022-07-09T02:42:48;13.90;90.70
46816;DHT22;32787;53.316;8.670;2022-07-09T02:45:13;13.90;90.80
46816;DHT22;32787;53.316;8.670;2022-07-09T02:47:39;13.90;90.90
46816;DHT22;32787;53.316;8.670;2022-07-09T02:50:05;14.10;90.60
46816;DHT22;32787;53.316;8.670;2022-07-09T02:52:31;14.00;90.50
46816;DHT22;32787;53.316;8.670;2022-07-09T02:54:57;14.00;90.70
46816;DHT22;32787;53.316;8.670;2022-07-09T02:57:22;14.20;90.50
46816;DHT22;32787;53.316;8.670;2022-07-09T02:59:48;14.20;90.20
46816;DHT22;32787;53.316;8.670;2022-07-09T03:02:14;14.00;90.30
46816;DHT22;32787;53.316;8.670;2022-07-09T03:04:39;14.10;90.90
46816;DHT22;32787;53.316;8.670;2022-07-09T03:07:05;14.10;90.70
46816;DHT22;32787;53.316;8.670;2022-07-09T03:09:30;14.10;90.70
46816;DHT22;32787;53.316;8.670;2022-07-09T03:11:56;14.10;90.80
46816;DHT22;32787;53.316;8.670;2022-07-09T03:14:21;14.00;91.00
46816;DHT22;32787;53.316;8.670;2022-07-09T03:16:47;14.00;90.80
46816;DHT22;32787;53.316;8.670;2022-07-09T03:19:13;14.10;90.90
46816;DHT22;32787;53.316;8.670;2022-07-09T03:21:39;14.00;90.90
46816;DHT22;32787;53.316;8.670;2022-07-09T03:24:05;13.90;91.00
46816;DHT22;32787;53.316;8.670;2022-07-09T03:26:31;14.00;91.00
46816;DHT22;32787;53.316;8.670;2022-07-09T03:28:56;13.90;91.00
46816;DHT22;32787;53.316;8.670;2022-07-09T03:31:22;13.90;90.90
46816;DHT22;32787;53.316;8.670;2022-07-09T03:33:47;13.90;91.20
46816;DHT22;32787;53.316;8.670;2022-07-09T03:36:13;13.80;91.00
46816;DHT22;32787;53.316;8.670;2022-07-09T03:38:39;13.90;91.40
46816;DHT22;32787;53.316;8.670;2022-07-09T03:41:04;13.90;91.00
46816;DHT22;32787;53.316;8.670;2022-07-09T03:43:30;14.00;91.30
46816;DHT22;32787;53.316;8.670;2022-07-09T03:45:55;14.00;91.00
46816;DHT22;32787;53.316;8.670;2022-07-09T03:48:21;14.00;90.70
46816;DHT22;32787;53.316;8.670;2022-07-09T03:50:47;13.90;91.10
46816;DHT22;32787;53.316;8.670;2022-07-09T03:53:12;14.00;91.50
46816;DHT22;32787;53.316;8.670;2022-07-09T03:55:38;14.30;90.80
46816;DHT22;32787;53.316;8.670;2022-07-09T03:58:04;14.30;90.90
46816;DHT22;32787;53.316;8.670;2022-07-09T04:00:30;14.10;90.90
46816;DHT22;32787;53.316;8.670;2022-07-09T04:02:55;14.10;91.20
46816;DHT22;32787;53.316;8.670;2022-07-09T04:05:21;14.10;91.60
46816;DHT22;32787;53.316;8.670;2022-07-09T04:07:47;14.40;91.50
46816;DHT22;32787;53.316;8.670;2022-07-09T04:10:12;14.40;91.40
46816;DHT22;32787;53.316;8.670;2022-07-09T04:12:38;14.40;91.10
46816;DHT22;32787;53.316;8.670;2022-07-09T04:15:04;14.30;91.30
46816;DHT22;32787;53.316;8.670;2022-07-09T04:17:30;14.40;91.50
46816;DHT22;32787;53.316;8.670;2022-07-09T04:19:55;14.60;91.40
46816;DHT22;32787;53.316;8.670;2022-07-09T04:22:21;14.80;91.10
46816;DHT22;32787;53.316;8.670;2022-07-09T04:24:46;14.80;90.80
46816;DHT22;32787;53.316;8.670;2022-07-09T04:27:12;14.80;90.90
46816;DHT22;32787;53.316;8.670;2022-07-09T04:29:38;15.00;90.40
46816;DHT22;32787;53.316;8.670;2022-07-09T04:32:03;15.00;90.40
46816;DHT22;32787;53.316;8.670;2022-07-09T04:34:29;15.00;90.30
46816;DHT22;32787;53.316;8.670;2022-07-09T04:36:55;15.10;90.20
46816;DHT22;32787;53.316;8.670;2022-07-09T04:39:20;15.20;89.90
46816;DHT22;32787;53.316;8.670;2022-07-09T04:41:49;15.10;90.30
46816;DHT22;32787;53.316;8.670;2022-07-09T04:44:15;15.10;90.50
46816;DHT22;32787;53.316;8.670;2022-07-09T04:46:42;15.00;90.90
46816;DHT22;32787;53.316;8.670;2022-07-09T04:49:09;15.20;90.70
46816;DHT22;32787;53.316;8.670;2022-07-09T04:51:34;15.10;90.30
46816;DHT22;32787;53.316;8.670;2022-07-09T04:54:00;15.10;90.80
46816;DHT22;32787;53.316;8.670;2022-07-09T04:56:26;15.10;90.80
46816;DHT22;32787;53.316;8.670;2022-07-09T04:58:51;15.10;91.10
46816;DHT22;32787;53.316;8.670;2022-07-09T05:01:21;15.30;91.00
46816;DHT22;32787;53.316;8.670;2022-07-09T05:03:47;15.30;90.40
46816;DHT22;32787;53.316;8.670;2022-07-09T05:06:17;15.30;90.50
46816;DHT22;32787;53.316;8.670;2022-07-09T05:08:43;15.30;90.80
46816;DHT22;32787;53.316;8.670;2022-07-09T05:11:08;15.30;91.00
46816;DHT22;32787;53.316;8.670;2022-07-09T05:13:36;15.30;91.20
46816;DHT22;32787;53.316;8.670;2022-07-09T05:16:02;15.30;90.80
46816;DHT22;32787;53.316;8.670;2022-07-09T05:18:28;15.40;91.00
46816;DHT22;32787;53.316;8.670;2022-07-09T05:20:56;15.30;90.70
46816;DHT22;32787;53.316;8.670;2022-07-09T05:23:21;15.30;91.20
46816;DHT22;32787;53.316;8.670;2022-07-09T05:25:47;15.40;91.00
46816;DHT22;32787;53.316;8.670;2022-07-09T05:28:13;15.30;91.00
46816;DHT22;32787;53.316;8.670;2022-07-09T05:30:38;15.40;91.40
46816;DHT22;32787;53.316;8.670;2022-07-09T05:33:05;15.40;91.40
46816;DHT22;32787;53.316;8.670;2022-07-09T05:35:31;15.50;91.50
46816;DHT22;32787;53.316;8.670;2022-07-09T05:37:56;15.50;91.50
46816;DHT22;32787;53.316;8.670;2022-07-09T05:40:22;15.60;91.40
46816;DHT22;32787;53.316;8.670;2022-07-09T05:42:48;15.60;91.50
46816;DHT22;32787;53.316;8.670;2022-07-09T05:45:13;15.70;91.50
46816;DHT22;32787;53.316;8.670;2022-07-09T05:47:39;15.90;91.20
46816;DHT22;32787;53.316;8.670;2022-07-09T05:50:05;15.80;90.80
46816;DHT22;32787;53.316;8.670;2022-07-09T05:52:31;15.80;90.90
46816;DHT22;32787;53.316;8.670;2022-07-09T05:54:57;15.80;90.80
46816;DHT22;32787;53.316;8.670;2022-07-09T05:57:23;15.80;91.20
46816;DHT22;32787;53.316;8.670;2022-07-09T05:59:48;15.90;91.10
46816;DHT22;32787;53.316;8.670;2022-07-09T06:02:14;15.90;91.20
46816;DHT22;32787;53.316;8.670;2022-07-09T06:04:39;15.90;91.30
46816;DHT22;32787;53.316;8.670;2022-07-09T06:07:05;16.20;90.70
46816;DHT22;32787;53.316;8.670;2022-07-09T06:09:31;16.10;90.80
46816;DHT22;32787;53.316;8.670;2022-07-09T06:11:56;16.30;90.90
46816;DHT22;32787;53.316;8.670;2022-07-09T06:14:22;16.30;90.40
46816;DHT22;32787;53.316;8.670;2022-07-09T06:16:48;16.30;90.10
46816;DHT22;32787;53.316;8.670;2022-07-09T06:19:14;16.40;90.40
46816;DHT22;32787;53.316;8.670;2022-07-09T06:21:40;16.60;89.90
46816;DHT22;32787;53.316;8.670;2022-07-09T06:24:06;16.60;89.60
46816;DHT22;32787;53.316;8.670;2022-07-09T06:26:32;16.50;89.60
46816;DHT22;32787;53.316;8.670;2022-07-09T06:28:59;16.60;89.90
46816;DHT22;32787;53.316;8.670;2022-07-09T06:31:25;16.70;89.80
46816;DHT22;32787;53.316;8.670;2022-07-09T06:33:51;16.60;89.90
46816;DHT22;32787;53.316;8.670;2022-07-09T06:36:16;16.70;89.90
46816;DHT22;32787;53.316;8.670;2022-07-09T06:38:42;16.80;89.60
46816;DHT22;32787;53.316;8.670;2022-07-09T06:41:28;16.70;89.90
46816;DHT22;32787;53.316;8.670;2022-07-09T06:43:53;16.80;89.70
46816;DHT22;32787;53.316;8.670;2022-07-09T06:46:19;16.80;89.20
46816;DHT22;32787;53.316;8.670;2022-07-09T06:48:44;16.80;89.10
46816;DHT22;32787;53.316;8.670;2022-07-09T06:51:10;16.80;89.00
46816;DHT22;32787;53.316;8.670;2022-07-09T06:53:36;16.80;89.10
46816;DHT22;32787;53.316;8.670;2022-07-09T06:56:02;16.80;89.20
46816;DHT22;32787;53.316;8.670;2022-07-09T06:58:28;16.80;89.40
46816;DHT22;32787;53.316;8.670;2022-07-09T07:00:54;17.00;89.20
46816;DHT22;32787;53.316;8.670;2022-07-09T07:03:19;17.00;88.30
46816;DHT22;32787;53.316;8.670;2022-07-09T07:05:45;16.90;88.20
46816;DHT22;32787;53.316;8.670;2022-07-09T07:08:10;16.90;88.60
46816;DHT22;32787;53.316;8.670;2022-07-09T07:10:36;16.90;88.90
46816;DHT22;32787;53.316;8.670;2022-07-09T07:13:02;17.00;88.50
46816;DHT22;32787;53.316;8.670;2022-07-09T07:15:27;17.10;88.60
46816;DHT22;32787;53.316;8.670;2022-07-09T07:17:53;17.20;88.00
46816;DHT22;32787;53.316;8.670;2022-07-09T07:20:18;17.20;88.10
46816;DHT22;32787;53.316;8.670;2022-07-09T07:22:48;17.30;87.60
46816;DHT22;32787;53.316;8.670;2022-07-09T07:25:14;17.60;87.00
46816;DHT22;32787;53.316;8.670;2022-07-09T07:27:39;17.50;87.00
46816;DHT22;32787;53.316;8.670;2022-07-09T07:30:05;17.70;86.70
46816;DHT22;32787;53.316;8.670;2022-07-09T07:32:31;17.80;86.20
46816;DHT22;32787;53.316;8.670;2022-07-09T07:34:57;17.80;85.80
46816;DHT22;32787;53.316;8.670;2022-07-09T07:37:22;17.60;85.80
46816;DHT22;32787;53.316;8.670;2022-07-09T07:39:48;17.80;85.30
46816;DHT22;32787;53.316;8.670;2022-07-09T07:42:14;17.80;85.90
46816;DHT22;32787;53.316;8.670;2022-07-09T07:44:41;17.90;85.00
46816;DHT22;32787;53.316;8.670;2022-07-09T07:47:06;17.80;84.90
46816;DHT22;32787;53.316;8.670;2022-07-09T07:49:32;17.90;84.50
46816;DHT22;32787;53.316;8.670;2022-07-09T07:51:58;18.00;84.70
46816;DHT22;32787;53.316;8.670;2022-07-09T07:54:23;18.20;84.60
46816;DHT22;32787;53.316;8.670;2022-07-09T07:56:49;18.20;83.70
46816;DHT22;32787;53.316;8.670;2022-07-09T07:59:16;18.30;83.90
46816;DHT22;32787;53.316;8.670;2022-07-09T08:01:42;18.40;82.80
46816;DHT22;32787;53.316;8.670;2022-07-09T08:04:07;18.30;82.80
46816;DHT22;32787;53.316;8.670;2022-07-09T08:06:33;18.30;83.00
46816;DHT22;32787;53.316;8.670;2022-07-09T08:09:01;18.30;83.30
46816;DHT22;32787;53.316;8.670;2022-07-09T08:11:27;18.40;82.80
46816;DHT22;32787;53.316;8.670;2022-07-09T08:13:53;18.40;82.00
46816;DHT22;32787;53.316;8.670;2022-07-09T08:16:18;18.70;81.10
46816;DHT22;32787;53.316;8.670;2022-07-09T08:18:45;18.80;81.00
46816;DHT22;32787;53.316;8.670;2022-07-09T08:21:11;18.70;80.70
46816;DHT22;32787;53.316;8.670;2022-07-09T08:23:37;18.60;81.40
46816;DHT22;32787;53.316;8.670;2022-07-09T08:26:23;18.70;81.30
46816;DHT22;32787;53.316;8.670;2022-07-09T08:28:50;18.70;80.80
46816;DHT22;32787;53.316;8.670;2022-07-09T08:31:16;19.00;81.00
46816;DHT22;32787;53.316;8.670;2022-07-09T08:33:42;19.20;80.00
46816;DHT22;32787;53.316;8.670;2022-07-09T08:36:08;19.10;79.90
46816;DHT22;32787;53.316;8.670;2022-07-09T08:38:33;19.20;79.60
46816;DHT22;32787;53.316;8.670;2022-07-09T08:41:00;19.10;79.70
46816;DHT22;32787;53.316;8.670;2022-07-09T08:43:26;19.20;80.10
46816;DHT22;32787;53.316;8.670;2022-07-09T08:45:54;19.10;79.40
46816;DHT22;32787;53.316;8.670;2022-07-09T08:48:20;19.20;78.90
46816;DHT22;32787;53.316;8.670;2022-07-09T08:50:48;19.10;78.70
46816;DHT22;32787;53.316;8.670;2022-07-09T08:53:16;19.10;78.20
46816;DHT22;32787;53.316;8.670;2022-07-09T08:55:42;19.10;77.90
46816;DHT22;32787;53.316;8.670;2022-07-09T08:58:12;19.00;78.80
46816;DHT22;32787;53.316;8.670;2022-07-09T09:00:38;18.80;79.30
46816;DHT22;32787;53.316;8.670;2022-07-09T09:03:05;18.80;79.60
46816;DHT22;32787;53.316;8.670;2022-07-09T09:05:31;19.10;79.60
46816;DHT22;32787;53.316;8.670;2022-07-09T09:07:56;19.40;78.20
46816;DHT22;32787;53.316;8.670;2022-07-09T09:10:23;19.50;77.20
46816;DHT22;32787;53.316;8.670;2022-07-09T09:12:55;19.30;76.80
46816;DHT22;32787;53.316;8.670;2022-07-09T09:15:20;19.30;77.20
46816;DHT22;32787;53.316;8.670;2022-07-09T09:17:46;19.20;77.20
46816;DHT22;32787;53.316;8.670;2022-07-09T09:20:15;19.20;77.00
46816;DHT22;32787;53.316;8.670;2022-07-09T09:22:50;19.20;77.90
46816;DHT22;32787;53.316;8.670;2022-07-09T09:25:19;19.10;76.90
46816;DHT22;32787;53.316;8.670;2022-07-09T09:27:52;19.00;77.80
46816;DHT22;32787;53.316;8.670;2022-07-09T09:30:18;19.00;77.90
46816;DHT22;32787;53.316;8.670;2022-07-09T09:32:44;19.10;77.60
46816;DHT22;32787;53.316;8.670;2022-07-09T09:35:09;19.10;78.00
46816;DHT22;32787;53.316;8.670;2022-07-09T09:37:36;19.50;77.10
46816;DHT22;32787;53.316;8.670;2022-07-09T09:40:09;19.70;76.00
46816;DHT22;32787;53.316;8.670;2022-07-09T09:42:40;19.90;75.30
46816;DHT22;32787;53.316;8.670;2022-07-09T09:45:08;20.10;74.40
46816;DHT22;32787;53.316;8.670;2022-07-09T09:47:34;20.00;74.10
46816;DHT22;32787;53.316;8.670;2022-07-09T09:50:00;20.00;74.90
46816;DHT22;32787;53.316;8.670;2022-07-09T09:52:27;20.00;74.50
46816;DHT22;32787;53.316;8.670;2022-07-09T09:54:52;19.90;75.10
46816;DHT22;32787;53.316;8.670;2022-07-09T09:57:21;19.90;75.50
46816;DHT22;32787;53.316;8.670;2022-07-09T09:59:51;20.00;73.90
46816;DHT22;32787;53.316;8.670;2022-07-09T10:02:19;19.90;75.00
46816;DHT22;32787;53.316;8.670;2022-07-09T10:04:44;19.80;73.90
46816;DHT22;32787;53.316;8.670;2022-07-09T10:07:11;19.80;75.40
46816;DHT22;32787;53.316;8.670;2022-07-09T10:09:37;19.80;74.90
46816;DHT22;32787;53.316;8.670;2022-07-09T10:12:03;19.80;75.40
46816;DHT22;32787;53.316;8.670;2022-07-09T10:14:33;20.00;74.40
46816;DHT22;32787;53.316;8.670;2022-07-09T10:17:15;20.00;73.00
46816;DHT22;32787;53.316;8.670;2022-07-09T10:20:14;19.90;73.00
46816;DHT22;32787;53.316;8.670;2022-07-09T10:22:42;19.80;74.90
46816;DHT22;32787;53.316;8.670;2022-07-09T10:25:10;20.00;74.10
46816;DHT22;32787;53.316;8.670;2022-07-09T10:27:43;20.00;74.00
46816;DHT22;32787;53.316;8.670;2022-07-09T10:30:26;20.00;75.70
46816;DHT22;32787;53.316;8.670;2022-07-09T10:35:27;19.80;75.40
46816;DHT22;32787;53.316;8.670;2022-07-09T10:37:53;20.00;76.40
46816;DHT22;32787;53.316;8.670;2022-07-09T10:40:20;20.20;74.50
46816;DHT22;32787;53.316;8.670;2022-07-09T10:43:02;19.80;74.70
46816;DHT22;32787;53.316;8.670;2022-07-09T10:45:41;19.80;74.20
46816;DHT22;32787;53.316;8.670;2022-07-09T10:48:08;19.80;75.50
46816;DHT22;32787;53.316;8.670;2022-07-09T10:50:43;19.80;75.80
46816;DHT22;32787;53.316;8.670;2022-07-09T10:53:10;20.20;73.00
46816;DHT22;32787;53.316;8.670;2022-07-09T10:55:36;20.30;74.30
46816;DHT22;32787;53.316;8.670;2022-07-09T10:58:02;20.40;73.50
46816;DHT22;32787;53.316;8.670;2022-07-09T11:00:33;20.00;74.50
46816;DHT22;32787;53.316;8.670;2022-07-09T11:03:04;19.50;75.50
46816;DHT22;32787;53.316;8.670;2022-07-09T11:05:32;19.60;75.10
46816;DHT22;32787;53.316;8.670;2022-07-09T11:08:05;19.90;74.30
46816;DHT22;32787;53.316;8.670;2022-07-09T11:10:33;20.20;73.10
46816;DHT22;32787;53.316;8.670;2022-07-09T11:13:00;20.30;73.30
46816;DHT22;32787;53.316;8.670;2022-07-09T11:15:27;20.30;73.00
46816;DHT22;32787;53.316;8.670;2022-07-09T11:18:12;19.90;73.60
46816;DHT22;32787;53.316;8.670;2022-07-09T11:20:42;19.60;73.80
46816;DHT22;32787;53.316;8.670;2022-07-09T11:23:12;20.20;74.30
46816;DHT22;32787;53.316;8.670;2022-07-09T11:25:39;20.50;72.20
46816;DHT22;32787;53.316;8.670;2022-07-09T11:28:05;20.30;71.10
46816;DHT22;32787;53.316;8.670;2022-07-09T11:30:31;20.20;70.90
46816;DHT22;32787;53.316;8.670;2022-07-09T11:32:58;20.00;71.20
46816;DHT22;32787;53.316;8.670;2022-07-09T11:35:34;19.80;72.60
46816;DHT22;32787;53.316;8.670;2022-07-09T11:38:01;19.90;72.60
46816;DHT22;32787;53.316;8.670;2022-07-09T11:40:27;19.70;74.10
46816;DHT22;32787;53.316;8.670;2022-07-09T11:42:54;19.20;74.80
46816;DHT22;32787;53.316;8.670;2022-07-09T11:45:24;19.20;74.60
46816;DHT22;32787;53.316;8.670;2022-07-09T11:48:08;19.10;75.00
46816;DHT22;32787;53.316;8.670;2022-07-09T11:50:42;19.20;74.40
46816;DHT22;32787;53.316;8.670;2022-07-09T11:53:21;19.20;74.70
46816;DHT22;32787;53.316;8.670;2022-07-09T11:56:01;19.30;73.20
46816;DHT22;32787;53.316;8.670;2022-07-09T11:58:28;19.30;73.20
46816;DHT22;32787;53.316;8.670;2022-07-09T12:00:53;19.60;71.50
46816;DHT22;32787;53.316;8.670;2022-07-09T12:03:26;19.80;71.00
46816;DHT22;32787;53.316;8.670;2022-07-09T12:05:52;20.20;72.10
46816;DHT22;32787;53.316;8.670;2022-07-09T12:08:30;20.40;68.50
46816;DHT22;32787;53.316;8.670;2022-07-09T12:10:56;20.80;69.50
46816;DHT22;32787;53.316;8.670;2022-07-09T12:13:22;21.60;66.30
46816;DHT22;32787;53.316;8.670;2022-07-09T12:15:48;21.80;61.70
46816;DHT22;32787;53.316;8.670;2022-07-09T12:18:14;21.90;61.80
46816;DHT22;32787;53.316;8.670;2022-07-09T12:20:40;21.60;61.60
46816;DHT22;32787;53.316;8.670;2022-07-09T12:23:05;21.40;63.30
46816;DHT22;32787;53.316;8.670;2022-07-09T12:25:31;20.60;64.70
46816;DHT22;32787;53.316;8.670;2022-07-09T12:27:57;20.30;65.90
46816;DHT22;32787;53.316;8.670;2022-07-09T12:30:22;19.80;66.60
46816;DHT22;32787;53.316;8.670;2022-07-09T12:32:49;19.60;67.80
46816;DHT22;32787;53.316;8.670;2022-07-09T12:35:15;19.10;67.80
46816;DHT22;32787;53.316;8.670;2022-07-09T12:37:41;19.30;68.60
46816;DHT22;32787;53.316;8.670;2022-07-09T12:40:08;19.80;66.70
46816;DHT22;32787;53.316;8.670;2022-07-09T12:42:35;20.90;63.60
46816;DHT22;32787;53.316;8.670;2022-07-09T12:45:01;20.90;61.10
46816;DHT22;32787;53.316;8.670;2022-07-09T12:47:27;21.50;58.60
46816;DHT22;32787;53.316;8.670;2022-07-09T12:49:52;21.90;58.10
46816;DHT22;32787;53.316;8.670;2022-07-09T12:52:18;22.40;56.30
46816;DHT22;32787;53.316;8.670;2022-07-09T12:54:44;22.80;55.10
46816;DHT22;32787;53.316;8.670;2022-07-09T12:57:10;21.90;56.10
46816;DHT22;32787;53.316;8.670;2022-07-09T12:59:37;22.30;55.30
46816;DHT22;32787;53.316;8.670;2022-07-09T13:02:03;23.50;54.00
46816;DHT22;32787;53.316;8.670;2022-07-09T13:04:29;23.70;52.40
46816;DHT22;32787;53.316;8.670;2022-07-09T13:06:55;23.40;54.60
46816;DHT22;32787;53.316;8.670;2022-07-09T13:09:21;22.30;54.00
46816;DHT22;32787;53.316;8.670;2022-07-09T13:11:46;21.00;56.60
46816;DHT22;32787;53.316;8.670;2022-07-09T13:14:13;20.30;58.10
46816;DHT22;32787;53.316;8.670;2022-07-09T13:16:39;20.70;57.40
46816;DHT22;32787;53.316;8.670;2022-07-09T13:19:05;22.70;53.60
46816;DHT22;32787;53.316;8.670;2022-07-09T13:21:31;23.70;51.00
46816;DHT22;32787;53.316;8.670;2022-07-09T13:23:57;24.20;52.50
46816;DHT22;32787;53.316;8.670;2022-07-09T13:26:23;22.70;51.40
46816;DHT22;32787;53.316;8.670;2022-07-09T13:28:48;21.40;57.70
46816;DHT22;32787;53.316;8.670;2022-07-09T13:31:14;20.40;59.80
46816;DHT22;32787;53.316;8.670;2022-07-09T13:33:40;21.00;57.10
46816;DHT22;32787;53.316;8.670;2022-07-09T13:36:06;22.40;55.80
46816;DHT22;32787;53.316;8.670;2022-07-09T13:38:32;23.60;48.80
46816;DHT22;32787;53.316;8.670;2022-07-09T13:40:58;22.20;52.40
46816;DHT22;32787;53.316;8.670;2022-07-09T13:43:24;21.80;52.50
46816;DHT22;32787;53.316;8.670;2022-07-09T13:45:55;20.90;53.20
46816;DHT22;32787;53.316;8.670;2022-07-09T13:48:24;20.50;53.80
46816;DHT22;32787;53.316;8.670;2022-07-09T13:50:50;21.40;52.60
46816;DHT22;32787;53.316;8.670;2022-07-09T13:53:16;22.30;48.90
46816;DHT22;32787;53.316;8.670;2022-07-09T13:55:43;22.90;50.00
46816;DHT22;32787;53.316;8.670;2022-07-09T13:58:09;22.60;50.60
46816;DHT22;32787;53.316;8.670;2022-07-09T14:00:34;21.50;52.80
46816;DHT22;32787;53.316;8.670;2022-07-09T14:03:00;22.10;52.70
46816;DHT22;32787;53.316;8.670;2022-07-09T14:05:26;23.80;52.20
46816;DHT22;32787;53.316;8.670;2022-07-09T14:07:51;25.10;45.90
46816;DHT22;32787;53.316;8.670;2022-07-09T14:10:17;24.40;44.00
46816;DHT22;32787;53.316;8.670;2022-07-09T14:12:43;23.70;46.40
46816;DHT22;32787;53.316;8.670;2022-07-09T14:15:09;23.00;45.90
46816;DHT22;32787;53.316;8.670;2022-07-09T14:17:34;23.50;45.20
46816;DHT22;32787;53.316;8.670;2022-07-09T14:20:00;22.50;47.10
46816;DHT22;32787;53.316;8.670;2022-07-09T14:22:26;22.30;49.20
46816;DHT22;32787;53.316;8.670;2022-07-09T14:24:52;22.40;46.40
46816;DHT22;32787;53.316;8.670;2022-07-09T14:27:18;21.70;49.60
46816;DHT22;32787;53.316;8.670;2022-07-09T14:29:44;20.50;50.30
46816;DHT22;32787;53.316;8.670;2022-07-09T14:32:10;20.30;51.50
46816;DHT22;32787;53.316;8.670;2022-07-09T14:34:36;20.00;53.80
46816;DHT22;32787;53.316;8.670;2022-07-09T14:37:02;19.90;53.40
46816;DHT22;32787;53.316;8.670;2022-07-09T14:39:28;19.50;54.00
46816;DHT22;32787;53.316;8.670;2022-07-09T14:41:54;19.10;56.80
46816;DHT22;32787;53.316;8.670;2022-07-09T14:44:20;19.20;56.90
46816;DHT22;32787;53.316;8.670;2022-07-09T14:46:46;19.00;57.00
46816;DHT22;32787;53.316;8.670;2022-07-09T14:49:12;18.70;55.90
46816;DHT22;32787;53.316;8.670;2022-07-09T14:51:38;18.80;58.40
46816;DHT22;32787;53.316;8.670;2022-07-09T14:54:04;18.80;58.80
46816;DHT22;32787;53.316;8.670;2022-07-09T14:56:30;18.80;60.00
46816;DHT22;32787;53.316;8.670;2022-07-09T14:58:56;18.60;58.70
46816;DHT22;32787;53.316;8.670;2022-07-09T15:01:22;18.40;59.40
46816;DHT22;32787;53.316;8.670;2022-07-09T15:03:48;19.10;58.10
46816;DHT22;32787;53.316;8.670;2022-07-09T15:06:14;19.40;58.00
46816;DHT22;32787;53.316;8.670;2022-07-09T15:08:39;19.20;58.20
46816;DHT22;32787;53.316;8.670;2022-07-09T15:11:05;19.10;55.90
46816;DHT22;32787;53.316;8.670;2022-07-09T15:13:31;19.80;54.30
46816;DHT22;32787;53.316;8.670;2022-07-09T15:15:57;20.40;53.50
46816;DHT22;32787;53.316;8.670;2022-07-09T15:18:22;20.40;54.40
46816;DHT22;32787;53.316;8.670;2022-07-09T15:20:48;21.10;52.50
46816;DHT22;32787;53.316;8.670;2022-07-09T15:23:14;21.10;50.70
46816;DHT22;32787;53.316;8.670;2022-07-09T15:25:39;20.20;55.30
46816;DHT22;32787;53.316;8.670;2022-07-09T15:28:05;19.70;55.70
46816;DHT22;32787;53.316;8.670;2022-07-09T15:30:31;19.00;56.30